Time;durP1;ratioP1;P1;durP2;ratioP2;P2;SDS_P1;SDS_P2;PMS_P1;PMS_P2;Temp;Humidity;BMP_temperature;BMP_pressure;BME280_temperature;BME280_humidity;BME280_pressure;Samples;Min_cycle;Max_cycle;Signal;HPM_P1;HPM_P2
2022/03/24 00:02:10;;;;;;;56.80;21.77;;;;;;;20.57;31.63;103081.69;5030642;28;20516;-72
2022/03/24 00:04:35;;;;;;;49.27;20.23;;;;;;;20.50;31.92;103078.25;5029867;28;20029;-71
2022/03/24 00:07:01;;;;;;;51.73;21.00;;;;;;;20.22;32.79;103072.50;5062248;28;20389;-72
2022/03/24 00:09:26;;;;;;;56.57;20.97;;;;;;;20.15;32.92;103080.56;5030838;28;20128;-72
2022/03/24 00:11:51;;;;;;;53.40;21.00;;;;;;;20.06;33.13;103079.78;5029459;28;20025;-72
2022/03/24 00:14:17;;;;;;;54.43;22.27;;;;;;;20.21;32.93;103078.69;5029000;28;20036;-72
2022/03/24 00:16:43;;;;;;;60.30;23.33;;;;;;;20.24;32.75;103074.22;5029804;28;20021;-72
2022/03/24 00:19:09;;;;;;;54.47;23.37;;;;;;;20.27;33.19;103078.63;5029126;28;20452;-73
2022/03/24 00:21:35;;;;;;;57.23;22.97;;;;;;;20.36;32.21;103073.19;5029093;28;20128;-72
2022/03/24 00:24:00;;;;;;;57.67;22.60;;;;;;;20.29;32.63;103071.50;5030806;28;20022;-72
2022/03/24 00:26:26;;;;;;;51.43;22.57;;;;;;;20.28;32.58;103069.75;5030435;28;20396;-72
2022/03/24 00:28:51;;;;;;;58.83;22.20;;;;;;;19.88;33.26;103075.63;5028980;28;20101;-73
2022/03/24 00:31:17;;;;;;;55.97;23.70;;;;;;;19.89;33.29;103077.38;5029216;28;20036;-71
2022/03/24 00:33:42;;;;;;;62.97;24.80;;;;;;;20.10;33.07;103076.19;5029482;28;20029;-72
2022/03/24 00:36:11;;;;;;;61.40;23.13;;;;;;;19.68;33.67;103079.41;5028607;28;20473;-72
2022/03/24 00:38:38;;;;;;;58.97;24.43;;;;;;;19.99;32.86;103079.03;5062503;28;20021;-72
2022/03/24 00:41:03;;;;;;;61.17;24.17;;;;;;;19.87;33.43;103079.22;5029218;28;20029;-72
2022/03/24 00:43:29;;;;;;;65.87;24.30;;;;;;;19.85;33.44;103073.03;5061918;28;20024;-71
2022/03/24 00:45:55;;;;;;;54.77;22.60;;;;;;;19.94;33.12;103076.44;5029201;28;20030;-72
2022/03/24 00:48:20;;;;;;;63.80;24.73;;;;;;;19.90;33.07;103079.16;5030022;28;20036;-72
2022/03/24 00:50:46;;;;;;;65.17;25.77;;;;;;;20.29;32.42;103082.13;5030800;28;20021;-72
2022/03/24 00:53:11;;;;;;;66.87;26.17;;;;;;;20.09;32.28;103079.78;5028724;28;20507;-72
2022/03/24 00:55:39;;;;;;;63.13;24.63;;;;;;;20.08;32.65;103076.22;5030278;28;20022;-72
2022/03/24 00:58:05;;;;;;;63.17;25.97;;;;;;;19.65;33.57;103072.34;5029143;28;20443;-72
2022/03/24 01:00:31;;;;;;;68.20;25.87;;;;;;;19.85;32.61;103070.38;5029341;28;20125;-72
2022/03/24 01:02:57;;;;;;;60.67;25.67;;;;;;;19.33;33.54;103068.31;5029708;28;20033;-73
2022/03/24 01:05:27;;;;;;;71.60;26.50;;;;;;;19.42;34.15;103069.97;5028810;28;20030;-72
2022/03/24 01:07:53;;;;;;;63.43;25.23;;;;;;;19.56;33.10;103072.47;5028939;28;20025;-72
2022/03/24 01:10:19;;;;;;;61.70;24.73;;;;;;;20.09;32.66;103062.06;5029620;28;20025;-73
2022/03/24 01:12:47;;;;;;;69.80;27.37;;;;;;;19.67;33.11;103056.41;5062410;28;20117;-72
2022/03/24 01:15:16;;;;;;;63.47;24.40;;;;;;;19.17;34.14;103055.28;5028480;28;20045;-72
2022/03/24 01:17:42;;;;;;;71.07;27.93;;;;;;;19.79;32.97;103050.94;5029828;28;20100;-71
2022/03/24 01:20:09;;;;;;;69.37;25.47;;;;;;;20.02;32.74;103047.13;5028486;28;20127;-72
2022/03/24 01:22:35;;;;;;;61.57;25.43;;;;;;;19.75;33.02;103043.91;5031300;28;20547;-73
2022/03/24 01:25:01;;;;;;;69.00;26.40;;;;;;;19.62;33.20;103045.88;5032084;28;20381;-72
2022/03/24 01:27:28;;;;;;;58.20;24.07;;;;;;;19.78;33.00;103049.22;5033587;28;20026;-71
2022/03/24 01:29:56;;;;;;;67.90;26.70;;;;;;;20.02;32.49;103052.44;5032270;28;20040;-72
2022/03/24 01:32:22;;;;;;;65.00;25.50;;;;;;;19.86;32.72;103051.78;5033064;28;20081;-72
2022/03/24 01:34:48;;;;;;;68.20;26.63;;;;;;;19.62;33.05;103047.66;5032535;28;20424;-73
2022/03/24 01:37:14;;;;;;;68.80;26.80;;;;;;;19.33;34.04;103035.66;5065376;28;20022;-71
2022/03/24 01:39:40;;;;;;;74.40;27.67;;;;;;;19.25;34.33;103048.13;5031922;28;20033;-71
2022/03/24 01:42:06;;;;;;;73.87;29.23;;;;;;;19.69;33.44;103044.03;5031902;28;20028;-72
2022/03/24 01:44:32;;;;;;;71.30;28.07;;;;;;;19.33;34.43;103035.66;5032066;28;20025;-72
2022/03/24 01:46:59;;;;;;;67.07;27.13;;;;;;;19.60;33.81;103036.19;5032033;28;20052;-72
2022/03/24 01:49:32;;;;;;;77.00;28.53;;;;;;;19.19;34.30;103027.81;5065194;28;20040;-72
2022/03/24 01:51:58;;;;;;;72.17;26.90;;;;;;;19.38;33.84;103031.13;5031658;28;20622;-71
2022/03/24 01:54:27;;;;;;;63.73;25.73;;;;;;;19.65;33.42;103031.69;5031861;28;20025;-72
2022/03/24 01:56:53;;;;;;;65.33;27.87;;;;;;;19.36;34.03;103029.41;5033117;28;20025;-72
2022/03/24 01:59:19;;;;;;;78.87;27.93;;;;;;;18.93;35.26;103041.38;5031224;28;20022;-72
2022/03/24 02:01:46;;;;;;;70.40;26.67;;;;;;;18.88;34.90;103035.25;5031965;28;20028;-72
2022/03/24 02:04:11;;;;;;;69.53;29.40;;;;;;;18.94;34.37;103040.47;5031540;28;20064;-73
2022/03/24 02:06:37;;;;;;;71.67;28.73;;;;;;;18.88;34.72;103037.91;5031547;28;20049;-72
2022/03/24 02:09:04;;;;;;;73.93;28.17;;;;;;;18.91;34.45;103032.56;5031532;28;20499;-72
2022/03/24 02:11:31;;;;;;;79.77;29.70;;;;;;;18.99;34.47;103036.00;5031794;28;20017;-72
2022/03/24 02:13:57;;;;;;;78.13;28.53;;;;;;;19.01;33.99;103033.34;5030941;28;20026;-74
2022/03/24 02:16:27;;;;;;;74.63;27.90;;;;;;;19.13;34.12;103039.38;5031469;28;20033;-72
2022/03/24 02:18:55;;;;;;;76.70;29.30;;;;;;;18.77;34.85;103030.91;5031304;28;20044;-72
2022/03/24 02:21:20;;;;;;;66.70;27.50;;;;;;;18.86;34.69;103029.03;5063863;28;20453;-72
2022/03/24 02:23:46;;;;;;;61.00;25.30;;;;;;;19.06;33.86;103032.41;5031493;28;20049;-72
2022/03/24 02:26:12;;;;;;;70.07;27.03;;;;;;;18.80;34.26;103025.56;5032121;28;20025;-72
2022/03/24 02:28:38;;;;;;;67.37;26.40;;;;;;;18.54;34.97;103030.22;5032102;28;20103;-72
2022/03/24 02:31:04;;;;;;;72.70;27.73;;;;;;;19.12;33.61;103016.44;5032508;28;20021;-71
2022/03/24 02:33:31;;;;;;;62.87;24.33;;;;;;;18.93;33.77;103021.06;5030726;28;20029;-72
2022/03/24 02:35:56;;;;;;;71.00;26.53;;;;;;;19.14;33.18;103019.06;5031243;28;20449;-72
2022/03/24 02:38:22;;;;;;;68.83;26.63;;;;;;;18.73;34.49;103018.56;5031205;28;20022;-72
2022/03/24 02:40:52;;;;;;;75.20;29.50;;;;;;;18.70;34.63;103023.91;5032102;28;20029;-72
2022/03/24 02:43:19;;;;;;;81.53;27.63;;;;;;;18.46;35.05;103030.28;5064436;28;20033;-72
2022/03/24 02:45:46;;;;;;;70.20;27.00;;;;;;;18.32;35.28;103017.16;5032259;28;20030;-72
2022/03/24 02:48:11;;;;;;;79.50;28.73;;;;;;;18.41;34.78;103022.41;5030202;28;20347;-72
2022/03/24 02:50:37;;;;;;;75.83;29.10;;;;;;;18.82;34.47;103029.09;5031105;28;20116;-72
2022/03/24 02:53:02;;;;;;;74.10;28.03;;;;;;;18.98;34.00;103024.53;5030865;28;20079;-72
2022/03/24 02:55:28;;;;;;;78.33;28.90;;;;;;;19.25;34.18;103021.59;5030267;28;20156;-73
2022/03/24 02:57:53;;;;;;;84.23;32.53;;;;;;;18.75;35.27;103022.09;5030575;28;20037;-72
2022/03/24 03:00:19;;;;;;;69.90;29.30;;;;;;;19.09;34.35;103019.09;5030674;28;20028;-72
2022/03/24 03:02:44;;;;;;;76.77;29.13;;;;;;;18.67;34.91;103021.28;5030420;28;20574;-71
2022/03/24 03:05:09;;;;;;;76.10;30.57;;;;;;;18.57;35.35;103015.19;5030074;28;20112;-71
2022/03/24 03:07:35;;;;;;;78.90;29.37;;;;;;;18.74;34.41;103017.69;5031777;28;20063;-72
2022/03/24 03:10:00;;;;;;;78.77;29.70;;;;;;;18.53;34.72;103023.16;5029896;28;20025;-72
2022/03/24 03:12:27;;;;;;;82.00;31.00;;;;;;;18.67;35.58;103013.34;5031573;28;20029;-72
2022/03/24 03:14:53;;;;;;;72.53;28.63;;;;;;;19.14;34.15;103025.25;5063546;28;20025;-72
2022/03/24 03:17:18;;;;;;;82.13;30.33;;;;;;;19.08;34.42;103029.72;5030895;28;20525;-72
2022/03/24 03:19:45;;;;;;;82.37;29.43;;;;;;;19.55;33.37;103014.13;5031974;28;20034;-72
2022/03/24 03:22:11;;;;;;;78.70;30.57;;;;;;;18.96;34.63;103015.72;5029923;28;20103;-72
2022/03/24 03:24:39;;;;;;;83.00;29.63;;;;;;;18.79;34.85;103015.88;5029719;28;20033;-71
2022/03/24 03:27:05;;;;;;;77.70;30.67;;;;;;;18.46;34.94;103025.00;5031183;28;20389;-72
2022/03/24 03:29:30;;;;;;;82.53;30.23;;;;;;;18.63;35.02;103014.28;5013951;28;20033;-71
2022/03/24 03:31:56;;;;;;;80.60;30.67;;;;;;;18.72;34.93;103014.16;5029594;28;20025;-72
2022/03/24 03:34:25;;;;;;;87.10;32.33;;;;;;;18.51;35.46;103012.59;5063140;28;20025;-73
2022/03/24 03:36:54;;;;;;;93.47;31.73;;;;;;;18.62;35.12;103013.38;5030361;28;20386;-71
2022/03/24 03:39:20;;;;;;;80.73;27.93;;;;;;;18.98;34.36;103015.69;5029495;28;20028;-72
2022/03/24 03:41:45;;;;;;;78.40;29.67;;;;;;;18.41;35.13;103016.19;5063781;28;20116;-72
2022/03/24 03:44:11;;;;;;;76.90;29.20;;;;;;;18.39;35.03;103013.56;5062464;28;20040;-72
2022/03/24 03:46:37;;;;;;;77.07;27.77;;;;;;;18.64;34.63;103010.69;5031006;28;20473;-71
2022/03/24 03:49:04;;;;;;;76.87;28.97;;;;;;;18.89;34.28;103008.75;5031175;28;20021;-72
2022/03/24 03:51:31;;;;;;;78.97;29.90;;;;;;;17.22;38.09;103022.16;5062905;28;20118;-72
2022/03/24 03:53:57;;;;;;;82.07;30.60;;;;;;;18.38;35.26;103010.94;5029894;28;20029;-72
2022/03/24 03:56:22;;;;;;;82.97;32.53;;;;;;;17.95;36.40;103022.72;5029821;28;20033;-72
2022/03/24 03:58:48;;;;;;;76.73;29.07;;;;;;;18.25;35.67;103015.47;5062581;28;20124;-71
2022/03/24 04:01:13;;;;;;;84.70;31.10;;;;;;;18.54;35.04;103017.00;5029342;28;20030;-72
2022/03/24 04:03:39;;;;;;;86.20;30.97;;;;;;;18.44;34.99;103016.19;5029755;28;20112;-72
2022/03/24 04:06:08;;;;;;;81.37;29.90;;;;;;;18.36;35.47;103012.75;5030063;28;20026;-72
2022/03/24 04:08:35;;;;;;;89.67;30.63;;;;;;;17.90;36.00;103019.19;5046482;28;20115;-72
2022/03/24 04:11:01;;;;;;;80.97;30.83;;;;;;;18.15;35.75;103009.38;5062731;28;20048;-73
2022/03/24 04:13:26;;;;;;;73.70;30.73;;;;;;;18.62;34.40;103012.50;5029180;28;20059;-72
2022/03/24 04:15:53;;;;;;;81.10;29.10;;;;;;;18.44;34.92;103022.34;5029660;28;20117;-72
2022/03/24 04:18:19;;;;;;;78.57;28.73;;;;;;;18.29;35.02;103017.19;5029807;28;20366;-72
2022/03/24 04:20:45;;;;;;;74.30;26.83;;;;;;;18.41;34.59;103017.09;5028677;28;20099;-72
2022/03/24 04:23:13;;;;;;;73.53;28.30;;;;;;;18.10;34.93;103011.16;5030475;28;20037;-72
2022/03/24 04:25:39;;;;;;;86.90;29.73;;;;;;;18.40;34.36;103014.47;5029456;28;20026;-72
2022/03/24 04:28:05;;;;;;;76.30;28.60;;;;;;;18.54;34.18;103011.69;5029073;28;20071;-71
2022/03/24 04:30:31;;;;;;;77.10;28.97;;;;;;;18.51;34.20;103015.25;5013281;28;20064;-72
2022/03/24 04:32:57;;;;;;;68.63;29.63;;;;;;;18.78;33.55;103011.47;5029435;28;20033;-72
2022/03/24 04:35:23;;;;;;;72.47;28.07;;;;;;;17.78;35.40;103026.31;5028712;28;20033;-72
2022/03/24 04:37:49;;;;;;;73.60;29.47;;;;;;;17.68;36.13;103019.34;5062991;28;20029;-72
2022/03/24 04:40:16;;;;;;;83.03;30.07;;;;;;;17.89;35.57;103017.44;5029061;28;20116;-72
2022/03/24 04:42:49;;;;;;;77.83;30.67;;;;;;;17.63;36.91;103026.41;5029022;28;20025;-72
2022/03/24 04:45:16;;;;;;;74.97;30.40;;;;;;;18.28;34.70;103015.44;5062133;28;20038;-72
2022/03/24 04:47:42;;;;;;;78.03;28.87;;;;;;;17.89;35.41;103025.38;5062299;28;20022;-71
2022/03/24 04:50:08;;;;;;;85.03;30.27;;;;;;;17.76;35.59;103027.19;5028808;28;20118;-72
2022/03/24 04:52:34;;;;;;;71.07;29.70;;;;;;;17.83;35.24;103023.63;5029350;28;20166;-72
2022/03/24 04:55:00;;;;;;;81.50;29.27;;;;;;;17.87;35.47;103027.16;5061835;28;20096;-72
2022/03/24 04:57:26;;;;;;;76.47;29.87;;;;;;;17.76;35.57;103024.56;5029473;28;20029;-72
2022/03/24 04:59:52;;;;;;;78.57;29.40;;;;;;;18.13;34.60;103021.72;5034231;28;20030;-72
2022/03/24 05:02:18;;;;;;;71.47;26.57;;;;;;;17.86;35.34;103017.44;5032290;28;20409;-72
2022/03/24 05:04:44;;;;;;;80.40;29.10;;;;;;;17.71;35.62;103029.88;5034317;28;20086;-73
2022/03/24 05:07:09;;;;;;;77.97;28.70;;;;;;;17.60;35.98;103022.00;5065705;28;20022;-72
2022/03/24 05:09:36;;;;;;;87.13;30.47;;;;;;;17.74;35.83;103029.84;5049244;28;20091;-72
2022/03/24 05:12:02;;;;;;;72.40;28.40;;;;;;;17.72;35.97;103031.66;5032901;28;20025;-72
2022/03/24 05:14:27;;;;;;;78.20;29.23;;;;;;;17.87;35.38;103029.78;5032719;28;20041;-72
2022/03/24 05:16:52;;;;;;;83.40;33.10;;;;;;;18.18;35.20;103024.34;5032114;28;20048;-72
2022/03/24 05:19:19;;;;;;;92.57;35.33;;;;;;;18.12;34.96;103020.84;5032387;28;20022;-72
2022/03/24 05:21:45;;;;;;;91.80;34.13;;;;;;;17.90;35.33;103035.06;5032768;28;20053;-72
2022/03/24 05:24:11;;;;;;;95.97;34.63;;;;;;;17.74;35.57;103031.63;5033115;28;20048;-72
2022/03/24 05:26:37;;;;;;;82.47;32.47;;;;;;;17.75;35.49;103036.00;5034025;28;20029;-72
2022/03/24 05:29:02;;;;;;;88.47;32.93;;;;;;;17.79;35.43;103036.00;5032503;28;20045;-72
2022/03/24 05:31:28;;;;;;;85.57;30.90;;;;;;;17.65;35.34;103035.19;5065116;28;20063;-72
2022/03/24 05:33:53;;;;;;;91.37;33.20;;;;;;;17.37;35.43;103031.81;5032192;28;20025;-72
2022/03/24 05:36:19;;;;;;;75.40;31.27;;;;;;;17.27;36.02;103033.59;5032140;28;20017;-72
2022/03/24 05:38:44;;;;;;;76.97;30.57;;;;;;;17.39;35.69;103036.19;5033235;28;20057;-72
2022/03/24 05:41:12;;;;;;;79.73;30.87;;;;;;;17.10;36.14;103036.28;5031887;28;20025;-72
2022/03/24 05:43:38;;;;;;;80.33;29.50;;;;;;;17.18;35.96;103044.19;5032446;28;20107;-71
2022/03/24 05:46:03;;;;;;;73.60;28.40;;;;;;;17.19;35.74;103043.31;5031537;28;20064;-72
2022/03/24 05:48:29;;;;;;;70.93;28.50;;;;;;;17.01;36.41;103041.56;5032105;28;20025;-72
2022/03/24 05:50:54;;;;;;;69.07;27.33;;;;;;;17.13;35.81;103046.81;5031507;28;20487;-72
2022/03/24 05:53:19;;;;;;;68.33;26.40;;;;;;;17.04;35.71;103047.72;5032047;28;20071;-72
2022/03/24 05:55:45;;;;;;;67.67;25.77;;;;;;;16.91;36.14;103040.72;5032295;28;20108;-72
2022/03/24 05:58:11;;;;;;;69.97;26.10;;;;;;;16.83;36.31;103038.06;5064460;28;20540;-72
2022/03/24 06:00:38;;;;;;;58.93;24.37;;;;;;;16.86;36.91;103038.06;5032020;28;20473;-72
2022/03/24 06:03:07;;;;;;;61.20;25.83;;;;;;;16.89;36.64;103040.72;5033080;28;20029;-72
2022/03/24 06:05:33;;;;;;;63.87;23.87;;;;;;;16.96;36.19;103044.22;5048217;28;20382;-72
2022/03/24 06:08:00;;;;;;;57.77;21.53;;;;;;;17.07;36.16;103045.06;5031553;28;20029;-72
2022/03/24 06:10:26;;;;;;;62.90;23.77;;;;;;;17.27;35.38;103044.16;5032752;28;20029;-72
2022/03/24 06:12:52;;;;;;;50.13;20.23;;;;;;;16.94;36.31;103043.38;5031073;28;20037;-72
2022/03/24 06:15:19;;;;;;;47.23;19.37;;;;;;;16.87;36.45;103039.81;5031638;28;20053;-72
2022/03/24 06:17:44;;;;;;;47.23;20.00;;;;;;;16.91;36.37;103051.28;5031579;28;20022;-72
2022/03/24 06:20:10;;;;;;;45.23;19.07;;;;;;;16.98;36.78;103052.16;5030444;28;20053;-72
2022/03/24 06:22:42;;;;;;;32.30;14.43;;;;;;;17.02;36.49;103049.53;5032879;28;20071;-71
2022/03/24 06:25:08;;;;;;;38.73;16.00;;;;;;;17.34;36.19;103051.19;5032648;28;20029;-71
2022/03/24 06:27:34;;;;;;;46.47;17.93;;;;;;;17.26;37.05;103058.25;5064376;28;20112;-72
2022/03/24 06:29:59;;;;;;;47.37;19.43;;;;;;;17.28;36.57;103056.47;5031463;28;20473;-72
2022/03/24 06:32:24;;;;;;;45.63;18.93;;;;;;;17.35;36.54;103058.25;5032716;28;20532;-72
2022/03/24 06:34:51;;;;;;;47.17;18.60;;;;;;;17.83;35.73;103059.78;5031090;28;20033;-72
2022/03/24 06:37:17;;;;;;;49.97;18.27;;;;;;;17.92;35.94;103054.50;5030949;28;20031;-72
2022/03/24 06:39:42;;;;;;;45.50;19.23;;;;;;;18.03;35.73;103050.00;5031443;28;20112;-72
2022/03/24 06:42:08;;;;;;;42.73;19.27;;;;;;;17.76;35.96;103054.56;5030562;28;20029;-72
2022/03/24 06:44:35;;;;;;;46.67;18.93;;;;;;;17.94;35.65;103050.97;5031262;28;20059;-72
2022/03/24 06:47:01;;;;;;;49.43;19.13;;;;;;;17.85;36.08;103055.38;5030399;28;20098;-72
2022/03/24 06:49:26;;;;;;;54.57;19.57;;;;;;;18.05;35.99;103058.84;5064113;28;20489;-71
2022/03/24 06:51:52;;;;;;;47.37;19.67;;;;;;;18.11;36.07;103064.06;5031269;28;20064;-72
2022/03/24 06:54:17;;;;;;;48.40;19.00;;;;;;;18.45;35.14;103050.59;5063788;28;20036;-72
2022/03/24 06:56:42;;;;;;;56.67;22.53;;;;;;;18.54;34.85;103048.78;5064485;28;20025;-71
2022/03/24 06:59:08;;;;;;;63.30;24.27;;;;;;;18.48;35.38;103055.00;5030572;28;20068;-71
2022/03/24 07:01:33;;;;;;;57.63;22.50;;;;;;;18.54;35.64;103054.06;5047021;28;20048;-72
2022/03/24 07:03:59;;;;;;;62.07;22.73;;;;;;;18.49;35.52;103056.72;5064004;28;20473;-72
2022/03/24 07:06:24;;;;;;;64.97;25.93;;;;;;;18.47;36.11;103059.41;5030662;28;20052;-73
2022/03/24 07:08:49;;;;;;;62.17;24.47;;;;;;;18.66;35.81;103053.97;5063744;28;20061;-72
2022/03/24 07:11:15;;;;;;;66.33;25.80;;;;;;;19.01;35.37;103050.09;5031459;28;20064;-72
2022/03/24 07:13:40;;;;;;;81.70;29.60;;;;;;;19.24;35.07;103059.59;5032010;28;20022;-72
2022/03/24 07:16:05;;;;;;;77.30;28.93;;;;;;;19.40;34.98;103054.97;5029731;28;20068;-72
2022/03/24 07:18:31;;;;;;;71.03;26.90;;;;;;;19.75;34.45;103058.97;5030969;28;20064;-72
2022/03/24 07:20:56;;;;;;;71.83;28.97;;;;;;;19.79;34.31;103061.56;5046068;28;20136;-72
2022/03/24 07:23:22;;;;;;;70.77;26.97;;;;;;;19.71;34.85;103063.44;5031029;28;20022;-72
2022/03/24 07:25:47;;;;;;;82.63;28.40;;;;;;;19.90;34.45;103057.94;5013936;28;20392;-72
2022/03/24 07:28:14;;;;;;;76.20;28.63;;;;;;;20.16;34.14;103057.53;5029960;28;20021;-72
2022/03/24 07:30:39;;;;;;;80.60;32.23;;;;;;;20.29;34.06;103061.75;5029731;28;20098;-71
2022/03/24 07:33:05;;;;;;;74.67;29.17;;;;;;;20.38;34.00;103065.19;5029759;28;20075;-73
2022/03/24 07:35:33;;;;;;;72.73;30.03;;;;;;;20.54;33.94;103060.47;5063728;28;20470;-72
2022/03/24 07:37:59;;;;;;;75.23;30.37;;;;;;;20.32;33.85;103055.53;5029548;28;20064;-72
2022/03/24 07:40:25;;;;;;;80.03;31.07;;;;;;;20.57;34.01;103056.00;5029831;28;20029;-72
2022/03/24 07:42:52;;;;;;;74.80;31.43;;;;;;;20.72;33.41;103054.88;5030036;28;20032;-72
2022/03/24 07:45:19;;;;;;;75.30;29.77;;;;;;;20.98;33.68;103058.88;5029362;28;20060;-72
2022/03/24 07:48:03;;;;;;;79.57;31.43;;;;;;;20.84;34.17;103064.41;5031554;28;20029;-72
2022/03/24 07:50:28;;;;;;;76.60;30.90;;;;;;;21.22;33.93;103064.59;5062755;28;20076;-72
2022/03/24 07:52:54;;;;;;;68.93;30.43;;;;;;;21.75;32.98;103069.72;5029638;28;20034;-73
2022/03/24 07:55:19;;;;;;;78.23;31.30;;;;;;;23.71;33.64;103067.38;5062938;28;20017;-71
2022/03/24 07:57:45;;;;;;;71.63;30.30;;;;;;;24.64;29.48;103059.13;5030884;28;20381;-72
2022/03/24 08:00:10;;;;;;;64.57;27.17;;;;;;;26.22;29.05;103070.19;5031129;28;20064;-72
2022/03/24 08:02:43;;;;;;;56.77;25.30;;;;;;;26.65;25.99;103067.50;5031439;28;20036;-72
2022/03/24 08:05:08;;;;;;;56.63;24.92;;;;;;;29.03;22.92;103069.59;5030055;28;20473;-72
2022/03/24 08:07:34;;;;;;;53.53;23.88;;;;;;;28.17;22.54;103074.91;5029997;28;20036;-72
2022/03/24 08:09:59;;;;;;;48.53;23.42;;;;;;;29.46;21.22;103078.06;5029848;28;20025;-72
2022/03/24 08:12:24;;;;;;;45.80;22.38;;;;;;;29.57;20.41;103082.88;5030668;28;20022;-72
2022/03/24 08:14:50;;;;;;;42.20;20.08;;;;;;;29.85;18.07;103076.78;5031388;28;20026;-72
2022/03/24 08:17:15;;;;;;;49.25;21.23;;;;;;;30.08;19.21;103082.69;5062936;28;20048;-72
2022/03/24 08:19:41;;;;;;;40.33;21.60;;;;;;;29.87;19.26;103082.97;5029249;28;20032;-72
2022/03/24 08:22:07;;;;;;;35.42;18.73;;;;;;;30.69;16.06;103083.59;5029156;28;20045;-72
2022/03/24 08:24:32;;;;;;;32.22;18.85;;;;;;;31.82;16.79;103090.09;5031087;28;20389;-72
2022/03/24 08:26:58;;;;;;;33.78;19.60;;;;;;;31.51;16.02;103083.94;5062393;28;20037;-71
2022/03/24 08:29:23;;;;;;;32.88;17.95;;;;;;;32.36;14.69;103091.06;5029807;28;20453;-72
2022/03/24 08:31:50;;;;;;;36.08;20.02;;;;;;;32.15;14.43;103083.44;5030867;28;20029;-72
2022/03/24 08:34:15;;;;;;;32.25;18.83;;;;;;;31.56;15.22;103089.03;5033987;28;20388;-73
2022/03/24 08:36:41;;;;;;;34.83;20.23;;;;;;;31.56;14.25;103084.50;5067207;28;20021;-72
2022/03/24 08:39:07;;;;;;;29.48;18.70;;;;;;;32.56;14.11;103089.69;5034423;28;20021;-72
2022/03/24 08:41:32;;;;;;;33.83;19.42;;;;;;;33.06;13.32;103096.13;5066928;28;20075;-72
2022/03/24 08:43:57;;;;;;;32.08;18.98;;;;;;;32.72;12.48;103094.94;5033465;28;20120;-72
2022/03/24 08:46:25;;;;;;;37.90;19.65;;;;;;;32.47;12.63;103102.00;5034683;28;20030;-72
2022/03/24 08:48:51;;;;;;;34.53;18.98;;;;;;;32.53;12.94;103104.28;5066526;28;20397;-72
2022/03/24 08:51:17;;;;;;;30.50;18.10;;;;;;;32.88;13.20;103101.00;5066584;28;20030;-72
2022/03/24 08:53:42;;;;;;;30.40;17.75;;;;;;;34.80;12.00;103103.16;5033215;28;20036;-72
2022/03/24 08:56:08;;;;;;;27.58;17.02;;;;;;;34.09;10.51;103105.91;5032973;28;20503;-72
2022/03/24 08:58:33;;;;;;;29.15;17.98;;;;;;;32.81;11.80;103111.41;5034367;28;20548;-72
2022/03/24 09:00:58;;;;;;;29.17;18.48;;;;;;;32.38;13.16;103108.91;5032752;28;20036;-72
2022/03/24 09:03:24;;;;;;;28.80;17.02;;;;;;;34.22;10.20;103114.81;5034435;28;20109;-72
2022/03/24 09:05:49;;;;;;;29.20;17.52;;;;;;;33.81;11.00;103116.09;5032974;28;20393;-72
2022/03/24 09:08:15;;;;;;;28.20;17.17;;;;;;;33.78;10.91;103110.91;5032285;28;20021;-72
2022/03/24 09:10:41;;;;;;;24.23;16.13;;;;;;;34.82;9.25;103106.69;5034336;28;20122;-72
2022/03/24 09:13:07;;;;;;;24.08;15.43;;;;;;;34.79;8.71;103106.91;5065854;28;20079;-72
2022/03/24 09:15:33;;;;;;;22.92;15.88;;;;;;;35.00;9.49;103117.94;5032441;28;20022;-71
2022/03/24 09:17:58;;;;;;;25.70;16.25;;;;;;;34.76;9.65;103118.84;5034041;28;20025;-72
2022/03/24 09:20:25;;;;;;;27.25;17.30;;;;;;;35.68;9.44;103109.75;5032538;28;20170;-72
2022/03/24 09:22:51;;;;;;;28.77;17.25;;;;;;;34.31;10.02;103125.00;5032483;28;20485;-72
2022/03/24 09:25:20;;;;;;;31.13;18.02;;;;;;;33.98;10.31;103123.84;5032768;28;20044;-72
2022/03/24 09:27:47;;;;;;;32.35;19.17;;;;;;;33.85;10.42;103125.72;5032918;28;20026;-72
2022/03/24 09:30:15;;;;;;;29.95;17.63;;;;;;;34.87;10.59;103115.34;5031673;28;20087;-71
2022/03/24 09:32:41;;;;;;;28.27;17.83;;;;;;;32.82;11.54;103117.69;5032693;28;20061;-71
2022/03/24 09:35:07;;;;;;;28.33;17.63;;;;;;;32.54;11.78;103124.97;5033257;28;20022;-72
2022/03/24 09:37:33;;;;;;;31.98;17.85;;;;;;;31.16;12.41;103119.47;5032076;28;20047;-72
2022/03/24 09:40:00;;;;;;;29.58;17.58;;;;;;;32.32;12.43;103116.59;5032096;28;20029;-72
2022/03/24 09:42:27;;;;;;;32.05;19.40;;;;;;;32.40;12.60;103122.34;5033570;28;20119;-72
2022/03/24 09:44:57;;;;;;;36.50;19.85;;;;;;;30.39;14.23;103118.63;5030995;28;20124;-72
2022/03/24 09:47:25;;;;;;;31.35;18.35;;;;;;;31.61;13.65;103122.06;5032018;28;20045;-72
2022/03/24 09:49:50;;;;;;;36.97;18.95;;;;;;;30.44;14.29;103121.97;5032161;28;20033;-72
2022/03/24 09:52:16;;;;;;;33.05;19.95;;;;;;;30.79;14.77;103119.00;5031880;28;20029;-72
2022/03/24 09:54:42;;;;;;;47.63;22.05;;;;;;;32.07;14.34;103110.09;5034076;28;20032;-72
2022/03/24 09:57:09;;;;;;;37.03;21.10;;;;;;;31.67;14.55;103112.69;5032735;28;20431;-72
2022/03/24 09:59:35;;;;;;;39.08;21.20;;;;;;;31.59;14.54;103108.66;5065626;28;20041;-72
2022/03/24 10:02:02;;;;;;;37.40;19.65;;;;;;;30.82;15.13;103108.00;5032079;28;20063;-72
2022/03/24 10:04:28;;;;;;;39.47;20.50;;;;;;;32.30;14.10;103106.75;5064677;28;20559;-72
2022/03/24 10:07:01;;;;;;;42.00;21.23;;;;;;;33.47;13.06;103102.28;5032035;28;20033;-72
2022/03/24 10:09:41;;;;;;;36.50;20.48;;;;;;;33.68;13.46;103112.53;5031504;28;20484;-72
2022/03/24 10:12:08;;;;;;;39.92;20.85;;;;;;;31.78;13.52;103105.63;5032447;28;20029;-72
2022/03/24 10:14:34;;;;;;;33.80;19.35;;;;;;;33.13;12.63;103115.53;5015548;28;20030;-72
2022/03/24 10:17:06;;;;;;;54.00;21.13;;;;;;;34.34;11.91;103112.19;5064886;28;20381;-72
2022/03/24 10:19:32;;;;;;;34.95;20.27;;;;;;;34.22;12.24;103114.81;5047910;28;20124;-72
2022/03/24 10:21:57;;;;;;;34.25;20.30;;;;;;;32.68;13.44;103104.22;5015042;28;20144;-72
2022/03/24 10:24:24;;;;;;;34.60;20.65;;;;;;;34.43;11.47;103108.75;5031619;28;20029;-72
2022/03/24 10:27:00;;;;;;;35.95;19.10;;;;;;;31.96;13.39;103108.97;5031195;28;20029;-72
2022/03/24 10:29:27;;;;;;;35.20;21.02;;;;;;;33.44;12.59;103102.50;5032499;28;20040;-72
2022/03/24 10:32:00;;;;;;;33.90;20.42;;;;;;;33.80;12.53;103103.53;5032690;28;20071;-72
2022/03/24 10:34:37;;;;;;;26.77;16.38;;;;;;;33.79;10.01;103107.22;5030847;28;20029;-72
2022/03/24 10:37:12;;;;;;;31.33;17.95;;;;;;;33.99;9.71;103103.00;5031362;28;20025;-72
2022/03/24 10:39:39;;;;;;;19.63;14.07;;;;;;;33.82;9.29;103113.25;5032499;28;20394;-72
2022/03/24 10:42:14;;;;;;;27.92;15.13;;;;;;;33.79;9.33;103108.06;5030806;28;20029;-72
2022/03/24 10:45:04;;;;;;;21.40;13.48;;;;;;;35.40;7.78;103103.00;5032627;28;20110;-72
2022/03/24 10:47:40;;;;;;;23.67;13.63;;;;;;;35.60;7.33;103107.69;5030959;28;20489;-73
2022/03/24 10:50:25;;;;;;;19.98;14.85;;;;;;;34.43;7.66;103104.22;5032034;28;20023;-71
2022/03/24 10:52:56;;;;;;;21.63;14.65;;;;;;;35.90;7.00;103099.84;5032574;28;20029;-72
2022/03/24 10:55:30;;;;;;;21.23;14.45;;;;;;;35.28;7.81;103107.53;5029865;28;20021;-72
2022/03/24 10:57:58;;;;;;;20.00;13.65;;;;;;;34.32;8.00;103107.75;5030910;28;20044;-72
2022/03/24 11:00:23;;;;;;;20.52;14.05;;;;;;;33.14;8.55;103106.44;5031546;28;20029;-72
2022/03/24 11:02:49;;;;;;;19.95;13.85;;;;;;;33.34;9.26;103106.88;5064322;28;20044;-72
2022/03/24 11:05:14;;;;;;;22.58;14.30;;;;;;;32.97;10.57;103100.38;5031768;28;20030;-72
2022/03/24 11:07:40;;;;;;;22.88;15.93;;;;;;;32.81;10.24;103099.72;5030725;28;20129;-72